Vero Beach, FL

9:14 AM EDT on August 28, 2015 (GMT -0400)
SeaQuay-jacks1 | | Change Station
CLOSE
Current Station
Personal Weather Station
Location: Vero Beach, FL
Elevation: 15 ft
Nearby Weather Stations

Elev 15 ft 27.67 °N, 80.36 °W | Updated 58 days ago

Partly Cloudy
Partly Cloudy
84 °F
Feels Like 91 °F
N
5
Wind Variable Wind from SE
Gusts mph

Today
High -- | Low -- °F
--% Chance of Precip.
Yesterday
High -- | Low -- °F
Precip. -- in
6:58 AM 7:46 PM
Waxing Gibbous, 98% visible
Pressure 30.03 in
Visibility 10.0 miles
Clouds Clear
Heat Index 91 °F
Dew Point 74 °F
Humidity 73%
Rainfall in
Snow Depth Not available.
UV 1.0 out of 12
Pollen 2.10 out of 12
Air Quality Not available.
Flu Activity Not available.
METAR KVRB 281253Z 00000KT 10SM CLR 26/24 A3003 RMK AO2 SLP169 T02610239
Pressure 30.03 in
Visibility 10.0 miles
Clouds Clear
Heat Index 91 °F
Dew Point 74 °F
Humidity 73%
Rainfall in
Snow Depth Not available.
UV 1.0 out of 12
Pollen 2.10 out of 12
Air Quality Not available.
Flu Activity Not available.
METAR KVRB 281253Z 00000KT 10SM CLR 26/24 A3003 RMK AO2 SLP169 T02610239
Tropical Storm Erika remains unorganized as it travels through the northeast Caribbean Sea. Puerto Rico could receive over a foot of rain from Erika, which could help the ongoing drought but could also produce dangerous mudslides. Erika is not forecast to reach hurricane strength until Monday when it curves northward along the east coast of Florida. Follow the live blog

Nowcast | as of 7:30 am EDT on August 28, 2015

Through this morning...skies will be partly cloudy as temperatures warm through the 80s to near 90 by noon. There will be widely scattered showers and a few storms over the coastal waters...but they should remain there until later in the morning and early afternoon. Rain chances will be higher than normal this afternoon and skewed more inland in general. Additional details...including graphics are available online at: http://www.Srh.NOAA.Gov/mlb/blog.Php

×

10-Day Weather Forecast

×

Almanac

Astronomy

Aug. 28, 2015 Rise Set
Actual Time
Civil Twilight
Nautical Twilight
Astronomical Twilight
Moon
Length of Visible Light
Length of Day
Tomorrow will be .
, % of the Moon is Illuminated

Today's Extremes

State Highs State Lows

Community

WunderPhotos

Upload Photos

1,850,375 photos uploaded!

WunderBlogs® & News

Nearby

Air Quality

  Air Quality AQ Index Pollutant
Not available.

Snow Depth

Station Depth Elevation

Earthquake Activity

City Distance Mag. Time & Date
Minimum magnitude displayed is 2.5.

Coastal Water Temperatures

Place Temperature

Stations

Nearby Weather Stations

Station Location Temp. Windchill Dew Point Humidity Wind Precip. Elev Updated Type